Time;durP1;ratioP1;P1;durP2;ratioP2;P2;SDS_P1;SDS_P2;PMS_P1;PMS_P2;Temp;Humidity;BMP_temperature;BMP_pressure;BME280_temperature;BME280_humidity;BME280_pressure;Samples;Min_cycle;Max_cycle;Signal;HPM_P1;HPM_P2
2022/04/06 00:01:38;;;;;;;;;;;18.80;48.80;;;;;;5042701;28;19924;-64
2022/04/06 00:04:03;;;;;;;;;;;18.80;48.80;;;;;;5043078;28;19952;-63
2022/04/06 00:06:29;;;;;;;;;;;18.80;48.80;;;;;;5024673;28;19921;-63
2022/04/06 00:08:54;;;;;;;;;;;18.80;48.80;;;;;;5023757;28;19971;-63
2022/04/06 00:11:20;;;;;;;;;;;18.80;48.90;;;;;;5044186;28;19983;-63
2022/04/06 00:13:45;;;;;;;;;;;18.80;48.90;;;;;;5044759;28;19916;-62
2022/04/06 00:16:10;;;;;;;;;;;18.80;48.80;;;;;;5026214;28;19917;-63
2022/04/06 00:18:36;;;;;;;;;;;18.80;48.90;;;;;;5038268;28;20372;-63
2022/04/06 00:21:02;;;;;;;;;;;18.80;48.90;;;;;;5039662;28;19956;-62
2022/04/06 00:23:27;;;;;;;;;;;18.80;48.90;;;;;;5044568;28;19996;-62
2022/04/06 00:25:55;;;;;;;;;;;18.80;48.90;;;;;;5030108;28;19925;-63
2022/04/06 00:28:21;;;;;;;;;;;18.80;49.00;;;;;;5024338;28;19937;-63
2022/04/06 00:30:46;;;;;;;;;;;18.70;49.00;;;;;;5036253;28;19917;-63
2022/04/06 00:33:11;;;;;;;;;;;18.70;49.00;;;;;;5043930;28;19912;-63
2022/04/06 00:35:37;;;;;;;;;;;18.70;48.90;;;;;;5033440;28;19941;-62
2022/04/06 00:38:03;;;;;;;;;;;18.70;49.00;;;;;;5023203;28;19924;-63
2022/04/06 00:40:28;;;;;;;;;;;18.70;49.00;;;;;;5032037;28;20471;-62
2022/04/06 00:42:54;;;;;;;;;;;18.70;49.00;;;;;;5043696;28;19921;-64
2022/04/06 00:45:23;;;;;;;;;;;18.70;49.60;;;;;;5035375;28;19948;-62
2022/04/06 00:47:48;;;;;;;;;;;18.70;49.00;;;;;;5023741;28;19921;-62
2022/04/06 00:50:14;;;;;;;;;;;18.70;49.00;;;;;;5028360;28;19927;-62
2022/04/06 00:52:39;;;;;;;;;;;18.70;49.00;;;;;;5043688;28;25447;-63
2022/04/06 00:55:05;;;;;;;;;;;18.70;49.00;;;;;;5040845;28;19917;-63
2022/04/06 00:57:30;;;;;;;;;;;18.60;48.90;;;;;;5023853;28;19917;-63
2022/04/06 00:59:56;;;;;;;;;;;18.60;49.60;;;;;;5038532;28;19917;-60
2022/04/06 01:02:21;;;;;;;;;;;18.60;48.90;;;;;;5023748;28;19983;-63
2022/04/06 01:04:47;;;;;;;;;;;18.60;49.00;;;;;;5024020;28;20737;-63
2022/04/06 01:07:12;;;;;;;;;;;18.60;49.10;;;;;;5042806;28;19920;-64
2022/04/06 01:09:37;;;;;;;;;;;18.60;49.10;;;;;;5041079;28;19925;-63
2022/04/06 01:12:03;;;;;;;;;;;18.60;49.20;;;;;;5026133;28;19913;-63
2022/04/06 01:14:28;;;;;;;;;;;18.60;49.30;;;;;;5023304;28;20349;-64
2022/04/06 01:17:00;;;;;;;;;;;18.60;49.40;;;;;;5041830;28;20349;-64
2022/04/06 01:19:44;;;;;;;;;;;18.60;49.30;;;;;;5042836;28;20003;-63
2022/04/06 01:22:10;;;;;;;;;;;18.60;49.40;;;;;;5026387;28;20012;-63
2022/04/06 01:24:35;;;;;;;;;;;18.60;49.40;;;;;;5023084;28;20028;-63
2022/04/06 01:27:01;;;;;;;;;;;18.60;49.40;;;;;;5037890;28;19917;-65
2022/04/06 01:29:26;;;;;;;;;;;18.60;49.40;;;;;;5042172;28;19945;-64
2022/04/06 01:31:52;;;;;;;;;;;18.60;49.40;;;;;;5029639;28;19920;-64
2022/04/06 01:34:17;;;;;;;;;;;18.60;49.50;;;;;;5023686;28;19917;-64
2022/04/06 01:36:43;;;;;;;;;;;18.60;49.50;;;;;;5034231;28;20347;-64
2022/04/06 01:39:08;;;;;;;;;;;18.50;49.50;;;;;;5041401;28;19925;-63
2022/04/06 01:41:34;;;;;;;;;;;18.60;49.50;;;;;;5034007;28;19921;-66
2022/04/06 01:44:00;;;;;;;;;;;18.60;49.50;;;;;;5038146;28;20395;-64
2022/04/06 01:46:26;;;;;;;;;;;18.60;49.50;;;;;;5030088;28;20020;-64
2022/04/06 01:54:21;;;;;;;;;;;18.60;49.60;;;;;;5035963;28;19931;-63
2022/04/06 01:56:47;;;;;;;;;;;18.60;49.60;;;;;;5031657;28;19912;-64
2022/04/06 01:59:12;;;;;;;;;;;18.50;49.50;;;;;;5040842;28;20007;-64
2022/04/06 02:01:38;;;;;;;;;;;18.60;49.60;;;;;;5035697;28;19928;-64
2022/04/06 02:04:11;;;;;;;;;;;18.50;49.50;;;;;;5037982;28;20375;-65
2022/04/06 02:06:36;;;;;;;;;;;18.50;49.60;;;;;;5040915;28;19917;-64
2022/04/06 02:09:02;;;;;;;;;;;18.50;49.60;;;;;;5041548;28;19952;-64
2022/04/06 02:11:27;;;;;;;;;;;18.50;49.60;;;;;;5037970;28;19918;-65
2022/04/06 02:13:53;;;;;;;;;;;18.50;49.70;;;;;;5022815;28;20608;-63
2022/04/06 02:16:18;;;;;;;;;;;18.50;49.70;;;;;;5025335;28;19913;-64
2022/04/06 02:18:44;;;;;;;;;;;18.50;49.70;;;;;;5042381;28;19924;-64
2022/04/06 02:21:09;;;;;;;;;;;18.50;49.80;;;;;;5042846;28;20408;-64
2022/04/06 02:23:34;;;;;;;;;;;18.40;49.80;;;;;;5023460;28;19923;-63
2022/04/06 02:26:00;;;;;;;;;;;18.40;49.90;;;;;;5022364;28;19945;-64
2022/04/06 02:28:25;;;;;;;;;;;18.40;50.00;;;;;;5040068;28;19913;-62
2022/04/06 02:30:51;;;;;;;;;;;18.30;50.00;;;;;;5042267;28;20552;-62
2022/04/06 02:33:16;;;;;;;;;;;18.30;50.10;;;;;;5026126;28;19972;-63
2022/04/06 02:35:42;;;;;;;;;;;18.30;50.30;;;;;;5022534;28;20400;-62
2022/04/06 02:38:07;;;;;;;;;;;18.20;50.30;;;;;;5036948;28;19913;-62
2022/04/06 02:40:33;;;;;;;;;;;18.20;50.40;;;;;;5040969;28;19917;-64
2022/04/06 02:42:58;;;;;;;;;;;18.10;50.60;;;;;;5029409;28;19943;-65
2022/04/06 02:45:24;;;;;;;;;;;18.20;50.60;;;;;;5021369;28;19925;-64
2022/04/06 02:47:49;;;;;;;;;;;18.20;50.60;;;;;;5033328;28;19932;-63
2022/04/06 02:50:15;;;;;;;;;;;18.20;50.60;;;;;;5041296;28;19966;-64
2022/04/06 02:52:40;;;;;;;;;;;18.20;50.60;;;;;;5032806;28;20653;-63
2022/04/06 02:55:08;;;;;;;;;;;18.20;50.60;;;;;;5021371;28;19921;-63
2022/04/06 02:57:33;;;;;;;;;;;18.20;50.50;;;;;;5028710;28;19913;-63
2022/04/06 02:59:59;;;;;;;;;;;18.20;50.40;;;;;;5041092;28;19940;-64
2022/04/06 03:02:25;;;;;;;;;;;18.30;50.40;;;;;;5036688;28;19921;-64
2022/04/06 03:04:50;;;;;;;;;;;18.20;50.30;;;;;;5022217;28;20015;-64
2022/04/06 03:07:19;;;;;;;;;;;18.30;50.40;;;;;;5025080;28;19912;-64
2022/04/06 03:09:45;;;;;;;;;;;18.30;50.40;;;;;;5041583;28;19940;-64
2022/04/06 03:12:10;;;;;;;;;;;18.30;50.30;;;;;;5043908;28;19916;-65
2022/04/06 03:14:35;;;;;;;;;;;18.30;50.30;;;;;;5026044;28;19923;-64
2022/04/06 03:17:01;;;;;;;;;;;18.20;50.30;;;;;;5025801;28;20399;-63
2022/04/06 03:19:26;;;;;;;;;;;18.30;50.30;;;;;;5044742;28;19916;-65
2022/04/06 03:21:52;;;;;;;;;;;18.20;50.20;;;;;;5045381;28;20677;-63
2022/04/06 03:24:17;;;;;;;;;;;18.30;50.30;;;;;;5027636;28;19914;-63
2022/04/06 03:26:43;;;;;;;;;;;18.30;50.30;;;;;;5025114;28;20010;-64
2022/04/06 03:29:08;;;;;;;;;;;18.30;50.30;;;;;;5040635;28;20374;-63
2022/04/06 03:31:34;;;;;;;;;;;18.30;50.30;;;;;;5041320;28;19917;-64
2022/04/06 03:34:00;;;;;;;;;;;18.30;50.30;;;;;;5025045;28;19913;-63
2022/04/06 03:36:26;;;;;;;;;;;18.30;50.30;;;;;;5025190;28;19917;-63
2022/04/06 03:38:51;;;;;;;;;;;18.20;50.30;;;;;;5024846;28;20337;-65
2022/04/06 03:41:17;;;;;;;;;;;18.30;50.30;;;;;;5025164;28;19917;-64
2022/04/06 03:43:42;;;;;;;;;;;18.30;50.30;;;;;;5035542;28;19917;-64
2022/04/06 03:46:07;;;;;;;;;;;18.30;50.20;;;;;;5044791;28;19920;-63
2022/04/06 03:48:33;;;;;;;;;;;18.30;50.20;;;;;;5035963;28;19968;-64
2022/04/06 03:50:58;;;;;;;;;;;18.30;50.20;;;;;;5025321;28;19913;-64
2022/04/06 03:53:24;;;;;;;;;;;18.30;50.10;;;;;;5031016;28;19925;-64
2022/04/06 03:55:49;;;;;;;;;;;18.30;50.10;;;;;;5045151;28;20555;-63
2022/04/06 03:58:15;;;;;;;;;;;18.30;50.10;;;;;;5040444;28;19913;-64
2022/04/06 04:00:40;;;;;;;;;;;18.30;50.00;;;;;;5024850;28;19914;-63
2022/04/06 04:03:06;;;;;;;;;;;18.30;50.00;;;;;;5027928;28;19921;-63
2022/04/06 04:05:32;;;;;;;;;;;18.30;50.00;;;;;;5044038;28;19920;-64
2022/04/06 04:07:57;;;;;;;;;;;18.40;50.00;;;;;;5024161;28;19917;-64
2022/04/06 04:10:23;;;;;;;;;;;18.40;50.00;;;;;;5024527;28;20077;-63
2022/04/06 04:12:48;;;;;;;;;;;18.40;50.00;;;;;;5026003;28;19932;-63
2022/04/06 04:15:13;;;;;;;;;;;18.40;49.90;;;;;;5025358;28;19909;-63
2022/04/06 04:17:39;;;;;;;;;;;18.40;49.90;;;;;;5026462;28;19909;-63
2022/04/06 04:20:05;;;;;;;;;;;18.40;50.00;;;;;;5041782;28;20111;-63
2022/04/06 04:22:30;;;;;;;;;;;18.40;49.90;;;;;;5043112;28;19913;-63
2022/04/06 04:24:56;;;;;;;;;;;18.40;49.90;;;;;;5030736;28;19913;-63
2022/04/06 04:27:22;;;;;;;;;;;18.40;49.90;;;;;;5025795;28;19909;-65
2022/04/06 04:29:47;;;;;;;;;;;18.40;49.90;;;;;;5036179;28;20798;-62
2022/04/06 04:32:14;;;;;;;;;;;18.50;49.90;;;;;;5044638;28;19913;-63
2022/04/06 04:34:40;;;;;;;;;;;18.40;49.90;;;;;;5032842;28;20322;-65
2022/04/06 04:37:05;;;;;;;;;;;18.50;50.00;;;;;;5023247;28;19909;-62
2022/04/06 04:39:31;;;;;;;;;;;18.40;50.10;;;;;;5033035;28;19913;-62
2022/04/06 04:41:57;;;;;;;;;;;18.50;50.20;;;;;;5043942;28;19988;-62
2022/04/06 04:44:22;;;;;;;;;;;18.50;50.20;;;;;;5036692;28;19931;-62
2022/04/06 04:46:48;;;;;;;;;;;18.50;50.20;;;;;;5024153;28;19921;-62
2022/04/06 04:49:13;;;;;;;;;;;18.50;50.10;;;;;;5028813;28;19948;-63
2022/04/06 04:51:39;;;;;;;;;;;18.50;50.00;;;;;;5043453;28;19958;-63
2022/04/06 04:54:04;;;;;;;;;;;18.50;50.00;;;;;;5040428;28;19913;-61
2022/04/06 04:56:30;;;;;;;;;;;18.50;50.00;;;;;;5039147;28;19909;-62
2022/04/06 04:58:56;;;;;;;;;;;18.50;50.00;;;;;;5024661;28;20018;-62
2022/04/06 05:01:22;;;;;;;;;;;18.60;50.00;;;;;;5044286;28;20337;-62
2022/04/06 05:03:48;;;;;;;;;;;18.50;50.00;;;;;;5043854;28;19921;-61
2022/04/06 05:06:14;;;;;;;;;;;18.50;50.00;;;;;;5003409;28;19916;-62
2022/04/06 05:08:39;;;;;;;;;;;18.50;50.00;;;;;;5001932;28;20275;-62
2022/04/06 05:11:05;;;;;;;;;;;18.60;50.00;;;;;;5040093;28;20010;-63
2022/04/06 05:13:30;;;;;;;;;;;18.60;49.90;;;;;;5044032;28;19909;-62
2022/04/06 05:15:56;;;;;;;;;;;18.60;50.10;;;;;;5026698;28;19909;-61
2022/04/06 05:18:22;;;;;;;;;;;18.60;50.10;;;;;;5024212;28;20572;-64
2022/04/06 05:20:47;;;;;;;;;;;18.60;50.20;;;;;;5040273;28;20462;-63
2022/04/06 05:23:12;;;;;;;;;;;18.60;50.30;;;;;;5039767;28;19921;-63
2022/04/06 05:25:38;;;;;;;;;;;18.60;50.50;;;;;;5029036;28;20745;-63
2022/04/06 05:28:04;;;;;;;;;;;18.60;50.60;;;;;;5022481;28;19913;-63
2022/04/06 05:30:30;;;;;;;;;;;18.60;50.60;;;;;;5014866;28;20372;-64
2022/04/06 05:32:56;;;;;;;;;;;18.60;50.60;;;;;;5011481;28;20396;-63
2022/04/06 05:35:23;;;;;;;;;;;18.60;50.70;;;;;;5031304;28;19939;-64
2022/04/06 05:37:49;;;;;;;;;;;18.60;50.70;;;;;;5043530;28;20287;-64
2022/04/06 05:40:14;;;;;;;;;;;18.60;50.70;;;;;;5035895;28;19916;-64
2022/04/06 05:42:40;;;;;;;;;;;18.60;50.70;;;;;;5023600;28;19960;-63
2022/04/06 05:45:06;;;;;;;;;;;18.50;50.60;;;;;;5028828;28;19917;-65
2022/04/06 05:47:32;;;;;;;;;;;18.50;50.70;;;;;;5041468;28;19916;-63
2022/04/06 05:49:57;;;;;;;;;;;18.50;50.60;;;;;;5038765;28;19913;-62
2022/04/06 05:52:23;;;;;;;;;;;18.50;50.60;;;;;;5023403;28;19917;-62
2022/04/06 05:54:48;;;;;;;;;;;18.50;50.80;;;;;;5040320;28;20421;-62
2022/04/06 05:57:14;;;;;;;;;;;18.50;50.60;;;;;;5042988;28;19974;-60
2022/04/06 05:59:40;;;;;;;;;;;18.50;50.60;;;;;;5041975;28;19913;-60
2022/04/06 06:02:08;;;;;;;;;;;18.50;50.60;;;;;;5022905;28;19940;-62
2022/04/06 06:04:34;;;;;;;;;;;18.40;50.50;;;;;;5021940;28;19959;-64
2022/04/06 06:06:59;;;;;;;;;;;18.50;50.50;;;;;;5039943;28;19925;-63
2022/04/06 06:09:25;;;;;;;;;;;18.40;50.40;;;;;;5041554;28;19915;-62
2022/04/06 06:11:50;;;;;;;;;;;18.40;50.60;;;;;;5026405;28;19920;-64
2022/04/06 06:14:16;;;;;;;;;;;18.40;50.60;;;;;;5022491;28;19913;-64
2022/04/06 06:16:41;;;;;;;;;;;18.40;50.60;;;;;;5035872;28;19920;-59
2022/04/06 06:19:07;;;;;;;;;;;18.40;50.70;;;;;;5040713;28;20376;-63
2022/04/06 06:21:32;;;;;;;;;;;18.40;50.60;;;;;;5029640;28;19921;-62
2022/04/06 06:24:02;;;;;;;;;;;18.40;50.70;;;;;;5022043;28;19920;-62
2022/04/06 06:26:28;;;;;;;;;;;18.40;50.70;;;;;;5032932;28;19917;-62
2022/04/06 06:28:53;;;;;;;;;;;18.40;50.70;;;;;;5041118;28;19940;-64
2022/04/06 06:31:18;;;;;;;;;;;18.40;50.70;;;;;;5033424;28;19909;-62
2022/04/06 06:33:44;;;;;;;;;;;18.40;50.70;;;;;;5021672;28;20406;-64
2022/04/06 06:36:09;;;;;;;;;;;18.40;50.80;;;;;;5029005;28;19978;-65
2022/04/06 06:38:35;;;;;;;;;;;18.40;50.80;;;;;;5041493;28;19924;-64
2022/04/06 06:41:01;;;;;;;;;;;18.40;50.80;;;;;;5037638;28;19913;-62
2022/04/06 06:43:27;;;;;;;;;;;18.40;50.80;;;;;;5036769;28;20283;-62
2022/04/06 06:45:52;;;;;;;;;;;18.40;50.80;;;;;;5024942;28;19916;-63
2022/04/06 06:48:18;;;;;;;;;;;18.40;50.80;;;;;;5041289;28;19916;-64
2022/04/06 06:50:43;;;;;;;;;;;18.40;50.80;;;;;;5040096;28;19921;-65
2022/04/06 06:53:08;;;;;;;;;;;18.40;50.90;;;;;;5022394;28;19952;-63
2022/04/06 06:55:34;;;;;;;;;;;18.40;50.90;;;;;;5022356;28;20180;-61
2022/04/06 06:57:59;;;;;;;;;;;18.40;51.00;;;;;;5040853;28;19913;-59
2022/04/06 07:00:25;;;;;;;;;;;18.50;51.60;;;;;;5039428;28;19964;-63
2022/04/06 07:02:50;;;;;;;;;;;18.50;52.00;;;;;;5024347;28;19925;-64
2022/04/06 07:05:16;;;;;;;;;;;18.50;52.10;;;;;;5036860;28;20599;-63
2022/04/06 07:07:50;;;;;;;;;;;18.50;52.20;;;;;;5021725;28;19917;-63
2022/04/06 07:10:16;;;;;;;;;;;18.50;52.20;;;;;;5021188;28;19913;-65
2022/04/06 07:12:42;;;;;;;;;;;18.50;52.10;;;;;;5036537;28;19909;-63
2022/04/06 07:15:07;;;;;;;;;;;18.50;52.00;;;;;;5041449;28;20168;-64
2022/04/06 07:17:33;;;;;;;;;;;18.50;51.90;;;;;;5028099;28;19910;-63
2022/04/06 07:19:58;;;;;;;;;;;18.50;51.90;;;;;;5020678;28;19920;-65
2022/04/06 07:22:24;;;;;;;;;;;18.50;51.60;;;;;;5032393;28;19927;-63
2022/04/06 07:24:49;;;;;;;;;;;18.50;51.60;;;;;;5040683;28;19917;-63
2022/04/06 07:27:16;;;;;;;;;;;18.50;51.50;;;;;;5031774;28;19909;-63
2022/04/06 07:29:42;;;;;;;;;;;18.60;51.40;;;;;;5020447;28;20607;-63
2022/04/06 07:32:08;;;;;;;;;;;18.60;51.20;;;;;;5038999;28;19996;-62
2022/04/06 07:34:33;;;;;;;;;;;18.60;51.10;;;;;;5041009;28;19921;-63
2022/04/06 07:36:59;;;;;;;;;;;18.60;51.10;;;;;;5035817;28;20638;-64
2022/04/06 07:39:26;;;;;;;;;;;18.60;51.00;;;;;;5020895;28;19917;-64
2022/04/06 07:41:51;;;;;;;;;;;18.60;50.90;;;;;;5025602;28;19920;-63
2022/04/06 07:44:17;;;;;;;;;;;18.60;50.80;;;;;;5041220;28;19913;-63
2022/04/06 07:46:42;;;;;;;;;;;18.60;50.70;;;;;;5036821;28;19923;-58
2022/04/06 07:49:08;;;;;;;;;;;18.60;50.70;;;;;;5020530;28;20341;-62
2022/04/06 07:51:36;;;;;;;;;;;18.60;50.60;;;;;;5021278;28;19913;-63
2022/04/06 07:54:01;;;;;;;;;;;18.60;50.50;;;;;;5001646;28;19916;-64
2022/04/06 07:56:27;;;;;;;;;;;18.60;50.50;;;;;;5001953;28;19914;-63
2022/04/06 07:58:52;;;;;;;;;;;18.60;51.20;;;;;;5040859;28;20359;-62
2022/04/06 08:01:18;;;;;;;;;;;18.60;50.50;;;;;;5043998;28;19923;-63
2022/04/06 08:03:43;;;;;;;;;;;18.60;50.50;;;;;;5028155;28;19957;-64
2022/04/06 08:06:09;;;;;;;;;;;18.60;50.40;;;;;;5024987;28;20356;-62
2022/04/06 08:08:34;;;;;;;;;;;18.60;50.40;;;;;;5038259;28;19912;-59
2022/04/06 08:11:00;;;;;;;;;;;18.60;50.30;;;;;;5044254;28;19924;-63
2022/04/06 08:13:25;;;;;;;;;;;18.60;50.30;;;;;;5031920;28;20592;-63
2022/04/06 08:15:51;;;;;;;;;;;18.60;50.30;;;;;;5024242;28;19924;-62
2022/04/06 08:18:16;;;;;;;;;;;18.60;50.30;;;;;;5034632;28;19909;-64
2022/04/06 08:20:42;;;;;;;;;;;18.60;50.30;;;;;;5042409;28;20619;-62
2022/04/06 08:23:07;;;;;;;;;;;18.60;50.30;;;;;;5035063;28;19924;-62
2022/04/06 08:25:33;;;;;;;;;;;18.60;50.30;;;;;;5024460;28;19913;-64
2022/04/06 08:27:58;;;;;;;;;;;18.70;50.30;;;;;;5031473;28;20604;-62
2022/04/06 08:30:24;;;;;;;;;;;18.70;50.30;;;;;;5042839;28;19978;-65
2022/04/06 08:32:49;;;;;;;;;;;18.70;50.40;;;;;;5039375;28;19913;-63
2022/04/06 08:35:17;;;;;;;;;;;18.70;50.40;;;;;;5023824;28;20000;-58
2022/04/06 08:37:42;;;;;;;;;;;18.70;50.40;;;;;;5027394;28;19940;-62
2022/04/06 08:40:08;;;;;;;;;;;18.80;50.50;;;;;;5043465;28;20363;-62
2022/04/06 08:42:34;;;;;;;;;;;18.80;50.50;;;;;;5042323;28;19913;-61
2022/04/06 08:45:00;;;;;;;;;;;18.80;50.50;;;;;;5038894;28;20328;-57
2022/04/06 08:47:25;;;;;;;;;;;18.80;50.50;;;;;;5023576;28;19929;-63
2022/04/06 08:49:50;;;;;;;;;;;18.80;50.60;;;;;;5042228;28;20406;-62
2022/04/06 08:52:16;;;;;;;;;;;18.80;50.50;;;;;;5043005;28;19909;-62
2022/04/06 08:54:41;;;;;;;;;;;18.80;50.40;;;;;;5026616;28;20360;-62
2022/04/06 08:57:07;;;;;;;;;;;18.80;50.40;;;;;;5039041;28;19909;-62
2022/04/06 08:59:32;;;;;;;;;;;18.80;50.30;;;;;;5038426;28;19916;-63
2022/04/06 09:01:58;;;;;;;;;;;18.80;50.40;;;;;;5044159;28;20539;-62
2022/04/06 09:04:24;;;;;;;;;;;18.80;50.30;;;;;;5031163;28;19916;-62
2022/04/06 09:06:50;;;;;;;;;;;18.80;50.30;;;;;;5024788;28;20000;-63
2022/04/06 09:09:22;;;;;;;;;;;18.80;50.30;;;;;;5035794;28;20051;-62
2022/04/06 09:11:48;;;;;;;;;;;18.80;50.30;;;;;;5045864;28;19913;-61
2022/04/06 09:14:13;;;;;;;;;;;18.80;50.20;;;;;;5043691;28;19909;-62
2022/04/06 09:16:39;;;;;;;;;;;18.90;50.30;;;;;;5043307;28;20385;-62
2022/04/06 09:19:07;;;;;;;;;;;18.80;50.20;;;;;;5033908;28;19954;-62
2022/04/06 09:21:36;;;;;;;;;;;18.90;50.30;;;;;;5023443;28;19913;-62
2022/04/06 09:24:01;;;;;;;;;;;18.90;50.30;;;;;;5041142;28;19912;-63
2022/04/06 09:26:28;;;;;;;;;;;18.90;50.30;;;;;;5042762;28;19947;-61
2022/04/06 09:28:53;;;;;;;;;;;18.90;50.30;;;;;;5036399;28;19913;-64
2022/04/06 09:31:19;;;;;;;;;;;18.90;50.30;;;;;;5038585;28;19916;-63
2022/04/06 09:33:58;;;;;;;;;;;18.90;50.30;;;;;;5027271;28;19948;-63
2022/04/06 09:36:25;;;;;;;;;;;18.90;50.40;;;;;;5039118;28;19996;-62
2022/04/06 09:38:51;;;;;;;;;;;18.90;50.40;;;;;;5037250;28;20703;-63
2022/04/06 09:41:17;;;;;;;;;;;18.90;50.40;;;;;;5008525;28;19917;-64
2022/04/06 09:43:44;;;;;;;;;;;18.90;50.30;;;;;;5005190;28;19909;-62
2022/04/06 09:49:01;;;;;;;;;;;18.90;50.50;;;;;;5036274;28;19963;-62
2022/04/06 09:51:27;;;;;;;;;;;18.90;50.50;;;;;;5014538;28;19937;-62
2022/04/06 09:53:53;;;;;;;;;;;18.80;50.50;;;;;;5005626;28;19921;-62
2022/04/06 09:56:18;;;;;;;;;;;18.80;50.50;;;;;;5036275;28;20667;-62
2022/04/06 09:58:44;;;;;;;;;;;18.80;50.60;;;;;;5040753;28;21378;-60
2022/04/06 10:01:09;;;;;;;;;;;18.80;50.60;;;;;;5015959;28;20402;-55
2022/04/06 10:03:35;;;;;;;;;;;18.80;50.60;;;;;;5002513;28;19917;-63
2022/04/06 10:06:01;;;;;;;;;;;18.80;50.60;;;;;;5021233;28;19909;-63
2022/04/06 10:08:26;;;;;;;;;;;18.80;50.70;;;;;;5020042;28;19913;-63
2022/04/06 10:10:55;;;;;;;;;;;18.80;50.80;;;;;;5005627;28;20556;-57
2022/04/06 10:13:21;;;;;;;;;;;18.80;50.80;;;;;;5033621;28;19910;-62
2022/04/06 10:15:46;;;;;;;;;;;18.80;50.70;;;;;;5024462;28;19913;-63
2022/04/06 10:18:11;;;;;;;;;;;18.80;50.70;;;;;;5041977;28;20469;-56
2022/04/06 10:20:56;;;;;;;;;;;18.80;50.80;;;;;;5027197;28;19910;-62
2022/04/06 10:23:24;;;;;;;;;;;18.80;50.80;;;;;;5002595;28;19925;-62
2022/04/06 10:26:04;;;;;;;;;;;18.80;50.80;;;;;;5027768;28;19908;-62
2022/04/06 10:28:33;;;;;;;;;;;18.80;50.80;;;;;;5033241;28;19909;-63
2022/04/06 10:31:18;;;;;;;;;;;18.80;50.70;;;;;;5026444;28;20457;-63
2022/04/06 10:33:44;;;;;;;;;;;18.80;50.70;;;;;;5002199;28;19968;-62
2022/04/06 10:36:28;;;;;;;;;;;18.80;50.60;;;;;;5017279;28;19913;-62
2022/04/06 10:39:10;;;;;;;;;;;18.80;50.70;;;;;;5026442;28;19909;-63
2022/04/06 10:41:39;;;;;;;;;;;18.80;50.70;;;;;;5004898;28;19917;-63
2022/04/06 10:44:04;;;;;;;;;;;18.80;50.60;;;;;;5002081;28;19914;-61
2022/04/06 10:46:32;;;;;;;;;;;18.80;50.50;;;;;;5020132;28;19917;-63
2022/04/06 10:48:58;;;;;;;;;;;18.80;50.40;;;;;;5021038;28;19916;-59
2022/04/06 10:51:26;;;;;;;;;;;18.80;50.50;;;;;;5022887;28;19913;-63
2022/04/06 10:53:51;;;;;;;;;;;18.90;50.50;;;;;;5001855;28;19913;-63
2022/04/06 10:56:17;;;;;;;;;;;18.90;50.40;;;;;;5022542;28;19978;-63
2022/04/06 10:58:57;;;;;;;;;;;18.90;50.40;;;;;;5039582;28;19920;-61
2022/04/06 11:01:26;;;;;;;;;;;18.90;50.40;;;;;;5026904;28;19936;-62
2022/04/06 11:03:54;;;;;;;;;;;18.90;50.40;;;;;;5002176;28;20024;-63
2022/04/06 11:06:38;;;;;;;;;;;18.90;50.30;;;;;;5014609;28;19913;-63
2022/04/06 11:11:48;;;;;;;;;;;18.90;50.30;;;;;;5020613;28;20005;-62
2022/04/06 11:14:26;;;;;;;;;;;18.90;50.30;;;;;;5033441;28;19913;-62
2022/04/06 11:16:52;;;;;;;;;;;18.90;50.30;;;;;;5039845;28;19951;-60
2022/04/06 11:19:18;;;;;;;;;;;18.90;50.30;;;;;;5036641;28;19948;-62
2022/04/06 11:21:50;;;;;;;;;;;18.90;50.20;;;;;;5027321;28;19966;-62
2022/04/06 11:24:16;;;;;;;;;;;18.90;50.20;;;;;;5001826;28;19921;-62
2022/04/06 11:26:42;;;;;;;;;;;19.00;50.20;;;;;;5014368;28;19940;-52
2022/04/06 11:29:07;;;;;;;;;;;19.00;50.20;;;;;;5020620;28;20723;-63
2022/04/06 11:31:33;;;;;;;;;;;19.00;50.20;;;;;;5012117;28;19910;-62
2022/04/06 11:33:58;;;;;;;;;;;19.00;50.10;;;;;;5005167;28;19920;-59
2022/04/06 11:36:24;;;;;;;;;;;19.00;50.10;;;;;;5014954;28;19959;-64
2022/04/06 11:38:50;;;;;;;;;;;19.00;50.10;;;;;;5023695;28;19980;-62
2022/04/06 11:41:15;;;;;;;;;;;18.90;49.90;;;;;;5032704;28;19925;-62
2022/04/06 11:43:42;;;;;;;;;;;19.00;50.00;;;;;;5019404;28;19915;-63
2022/04/06 11:46:07;;;;;;;;;;;19.00;50.00;;;;;;5016328;28;20003;-63
2022/04/06 11:48:40;;;;;;;;;;;19.00;50.00;;;;;;5023838;28;19948;-63
2022/04/06 11:51:05;;;;;;;;;;;19.00;50.00;;;;;;5028543;28;19916;-63
2022/04/06 11:53:31;;;;;;;;;;;19.00;49.90;;;;;;5024551;28;19967;-63
2022/04/06 11:55:59;;;;;;;;;;;19.10;49.90;;;;;;5037028;28;19920;-62
2022/04/06 11:58:31;;;;;;;;;;;19.10;49.90;;;;;;5016633;28;20003;-62
2022/04/06 12:01:15;;;;;;;;;;;19.10;49.90;;;;;;5006683;28;19910;-62
2022/04/06 12:03:41;;;;;;;;;;;19.10;49.90;;;;;;5039054;28;19913;-63
2022/04/06 12:06:11;;;;;;;;;;;19.10;49.80;;;;;;5041514;28;19913;-63
2022/04/06 12:08:37;;;;;;;;;;;19.10;49.90;;;;;;5014379;28;20659;-62
2022/04/06 12:11:03;;;;;;;;;;;19.10;49.80;;;;;;5007099;28;19910;-63
2022/04/06 12:13:29;;;;;;;;;;;19.10;49.80;;;;;;5024823;28;19916;-64
2022/04/06 12:15:55;;;;;;;;;;;19.10;49.80;;;;;;5037439;28;20457;-63
2022/04/06 12:18:20;;;;;;;;;;;19.10;49.90;;;;;;5021163;28;20693;-60
2022/04/06 12:20:46;;;;;;;;;;;19.10;49.90;;;;;;5004170;28;19921;-63
2022/04/06 12:23:11;;;;;;;;;;;19.10;49.80;;;;;;5033124;28;20371;-62
2022/04/06 12:25:37;;;;;;;;;;;19.10;49.80;;;;;;5044096;28;19912;-62
2022/04/06 12:28:09;;;;;;;;;;;19.10;49.80;;;;;;5027117;28;19909;-62
2022/04/06 12:30:34;;;;;;;;;;;19.20;49.90;;;;;;5003928;28;20009;-59
2022/04/06 12:33:00;;;;;;;;;;;19.10;49.80;;;;;;5019315;28;19939;-61
2022/04/06 12:35:25;;;;;;;;;;;19.20;49.80;;;;;;5024535;28;19948;-64
2022/04/06 12:37:51;;;;;;;;;;;19.20;49.70;;;;;;5030776;28;19913;-63
2022/04/06 12:40:26;;;;;;;;;;;19.20;49.80;;;;;;5019157;28;20600;-62
2022/04/06 12:42:51;;;;;;;;;;;19.20;49.70;;;;;;5028015;28;19917;-63
2022/04/06 12:45:18;;;;;;;;;;;19.20;49.60;;;;;;5043587;28;19928;-62
2022/04/06 12:47:44;;;;;;;;;;;19.20;49.60;;;;;;5033354;28;19909;-64
2022/04/06 12:50:19;;;;;;;;;;;19.20;49.70;;;;;;5004500;28;19996;-63
2022/04/06 12:52:47;;;;;;;;;;;19.30;49.70;;;;;;5013958;28;19909;-64
2022/04/06 12:55:13;;;;;;;;;;;19.30;49.70;;;;;;5038437;28;20692;-64
2022/04/06 12:57:38;;;;;;;;;;;19.30;49.60;;;;;;5035188;28;19993;-63
2022/04/06 13:00:04;;;;;;;;;;;19.30;49.70;;;;;;5009901;28;20004;-58
2022/04/06 13:02:34;;;;;;;;;;;19.30;49.60;;;;;;5010935;28;19921;-62
2022/04/06 13:05:00;;;;;;;;;;;19.30;49.60;;;;;;5043464;28;19920;-59
2022/04/06 13:07:26;;;;;;;;;;;19.30;49.60;;;;;;5037613;28;19998;-63
2022/04/06 13:09:52;;;;;;;;;;;19.30;49.70;;;;;;5017953;28;20371;-61
2022/04/06 13:12:18;;;;;;;;;;;19.30;49.70;;;;;;5011668;28;19948;-63
2022/04/06 13:14:44;;;;;;;;;;;19.30;49.60;;;;;;5023311;28;19948;-63
2022/04/06 13:17:09;;;;;;;;;;;19.30;49.70;;;;;;5039414;28;19908;-62
2022/04/06 13:19:34;;;;;;;;;;;19.30;49.70;;;;;;5028198;28;19913;-63
2022/04/06 13:22:00;;;;;;;;;;;19.30;49.60;;;;;;5003487;28;20431;-63
2022/04/06 13:24:25;;;;;;;;;;;19.30;49.70;;;;;;5003046;28;20007;-62
2022/04/06 13:26:51;;;;;;;;;;;19.40;49.70;;;;;;5003373;28;19920;-64
2022/04/06 13:29:17;;;;;;;;;;;19.40;49.70;;;;;;5020915;28;20434;-62
2022/04/06 13:31:42;;;;;;;;;;;19.40;49.70;;;;;;5036112;28;19912;-63
2022/04/06 13:34:08;;;;;;;;;;;19.40;49.80;;;;;;5025270;28;19932;-63
2022/04/06 13:36:33;;;;;;;;;;;19.30;49.70;;;;;;5003325;28;20435;-62
2022/04/06 13:38:59;;;;;;;;;;;19.40;49.70;;;;;;5016706;28;19992;-62
2022/04/06 13:41:24;;;;;;;;;;;19.40;49.80;;;;;;5023369;28;20295;-63
2022/04/06 13:43:50;;;;;;;;;;;19.40;49.60;;;;;;5010720;28;19940;-62
2022/04/06 13:46:15;;;;;;;;;;;19.40;49.60;;;;;;5003160;28;19961;-62
2022/04/06 13:48:41;;;;;;;;;;;19.40;49.50;;;;;;5012317;28;19913;-63
2022/04/06 13:51:06;;;;;;;;;;;19.40;49.70;;;;;;5023684;28;19913;-64
2022/04/06 13:53:32;;;;;;;;;;;19.40;49.60;;;;;;5015257;28;19913;-57
2022/04/06 13:55:58;;;;;;;;;;;19.40;49.60;;;;;;5003800;28;19920;-62
2022/04/06 13:58:23;;;;;;;;;;;19.40;49.60;;;;;;5010583;28;19914;-63
2022/04/06 14:00:49;;;;;;;;;;;19.40;49.50;;;;;;5024277;28;19921;-63
2022/04/06 14:03:14;;;;;;;;;;;19.40;49.50;;;;;;5018509;28;20032;-59
2022/04/06 14:05:44;;;;;;;;;;;19.40;49.60;;;;;;5003316;28;20375;-62
2022/04/06 14:08:09;;;;;;;;;;;19.40;49.50;;;;;;5006031;28;19967;-64
2022/04/06 14:10:35;;;;;;;;;;;19.50;49.50;;;;;;5021358;28;19917;-62
2022/04/06 14:13:00;;;;;;;;;;;19.50;49.50;;;;;;5033407;28;19920;-58
2022/04/06 14:15:25;;;;;;;;;;;19.50;49.50;;;;;;5014672;28;20499;-63
2022/04/06 14:17:51;;;;;;;;;;;19.50;49.50;;;;;;5002067;28;19914;-63
2022/04/06 14:20:16;;;;;;;;;;;19.50;49.50;;;;;;5021030;28;19940;-64
2022/04/06 14:22:44;;;;;;;;;;;19.50;49.40;;;;;;5034559;28;21044;-64